Mostly Cloudy Current Weather (METAR) For Antalya Airport

All times on the weather descriptions are local

Observed at 00:50 - (38 mins ago)

Mostly Cloudy

14°C

Mostly Cloudy
Clouds: Scattered Clouds at 3,000ft, Broken Clouds at 10,000ft
Wind: 320° at 06 knots
Visibility: Greater than 10km
QNH: 1016
Dew Point: 6°C
Runway in Use: Likely Runways 36L/C/R

Sunrise Today: 06:06
Sunset Today: 19:42

Forecast Weather (TAF) For Antalya Airport

Issued at 03:00 - (3 days 1 hr ago)


Runway in Use: Unable to determine, wind is clam

Forecast valid until 03:00 on Thursday

METAR/TAF RAW METAR / TAF

LTAI 262150Z 32006KT 9999 SCT030 BKN100 14/06 Q1016 NOSIG

Weather Widget

Put weather from any of our airports on your website with our weather widget.

Find Another Search

Airport Search


Please Wait Please Wait - Loading
Close
Close

Login

Username:

Password:

Remember Me:

Remember me on this computer

Forgotten your password? Get a reset password sent to your registered e-mail address

Close

User Private Message

Subject:

Message: